Time;durP1;ratioP1;P1;durP2;ratioP2;P2;SDS_P1;SDS_P2;PMS_P1;PMS_P2;Temp;Humidity;BMP_temperature;BMP_pressure;BME280_temperature;BME280_humidity;BME280_pressure;Samples;Min_cycle;Max_cycle;Signal;HPM_P1;HPM_P2
2022/08/19 00:00:18;;;;;;;5.20;4.80;;;21.10;99.90;;;;;;613096;234;26633;-69
2022/08/19 00:02:46;;;;;;;5.40;4.93;;;21.10;99.90;;;;;;613136;234;26605;-69
2022/08/19 00:05:13;;;;;;;6.10;5.55;;;21.10;99.90;;;;;;613048;234;26631;-70
2022/08/19 00:07:41;;;;;;;5.32;4.93;;;21.10;99.90;;;;;;612756;234;26603;-67
2022/08/19 00:10:09;;;;;;;5.82;5.40;;;21.10;99.90;;;;;;612898;234;26628;-66
2022/08/19 00:12:37;;;;;;;6.07;5.57;;;21.10;99.90;;;;;;612807;233;26818;-66
2022/08/19 00:15:06;;;;;;;5.87;5.28;;;21.10;99.90;;;;;;612833;234;26634;-66
2022/08/19 00:17:33;;;;;;;5.05;4.75;;;21.10;99.90;;;;;;612802;234;26658;-66
2022/08/19 00:20:00;;;;;;;5.72;5.32;;;21.10;99.90;;;;;;612843;233;26609;-66
2022/08/19 00:22:28;;;;;;;5.95;5.37;;;21.10;99.90;;;;;;612788;235;26646;-66
2022/08/19 00:24:56;;;;;;;5.93;5.43;;;21.20;99.90;;;;;;612873;233;26637;-66
2022/08/19 00:27:24;;;;;;;5.87;5.47;;;21.20;99.90;;;;;;612875;235;26657;-66
2022/08/19 00:29:52;;;;;;;6.25;5.75;;;21.20;99.90;;;;;;612849;235;26624;-66
2022/08/19 00:32:20;;;;;;;6.53;5.97;;;21.20;99.90;;;;;;612851;233;26666;-66
2022/08/19 00:34:48;;;;;;;5.40;5.00;;;21.20;99.90;;;;;;612725;234;27305;-66
2022/08/19 00:37:15;;;;;;;6.60;6.00;;;21.20;99.90;;;;;;612856;235;26850;-66
2022/08/19 00:39:42;;;;;;;6.00;5.53;;;21.30;99.90;;;;;;612880;235;26599;-67
2022/08/19 00:42:09;;;;;;;6.55;6.00;;;21.30;99.90;;;;;;614306;232;26827;-67
2022/08/19 00:44:37;;;;;;;5.72;5.22;;;21.20;99.90;;;;;;614073;234;26605;-67
2022/08/19 00:47:05;;;;;;;5.60;5.20;;;21.10;99.90;;;;;;613793;234;26845;-67
2022/08/19 00:49:33;;;;;;;6.22;5.70;;;21.10;99.90;;;;;;613601;233;26785;-67
2022/08/19 00:52:00;;;;;;;5.65;5.00;;;21.10;99.90;;;;;;613228;234;26563;-67
2022/08/19 00:54:27;;;;;;;6.43;5.90;;;21.10;99.90;;;;;;613191;234;26836;-68
2022/08/19 00:56:55;;;;;;;6.95;6.35;;;21.10;99.90;;;;;;613412;234;26562;-68
2022/08/19 00:59:22;;;;;;;5.90;5.40;;;21.10;99.90;;;;;;613300;234;26868;-68
2022/08/19 01:01:49;;;;;;;6.80;6.20;;;21.10;99.90;;;;;;613148;234;26604;-68
2022/08/19 01:04:16;;;;;;;6.60;6.10;;;21.00;99.90;;;;;;613151;234;26845;-68
2022/08/19 01:06:43;;;;;;;6.87;6.30;;;20.90;99.90;;;;;;613162;234;26623;-68
2022/08/19 01:09:11;;;;;;;6.53;6.00;;;20.70;99.90;;;;;;613161;234;26833;-68
2022/08/19 01:11:38;;;;;;;7.50;6.20;;;20.70;99.90;;;;;;613123;234;26603;-68
2022/08/19 01:14:05;;;;;;;6.70;5.90;;;20.60;99.90;;;;;;613021;234;26559;-68
2022/08/19 01:16:33;;;;;;;7.00;6.40;;;20.60;99.90;;;;;;613043;233;26838;-68
2022/08/19 01:19:00;;;;;;;6.15;5.65;;;20.60;99.90;;;;;;612898;234;26630;-68
2022/08/19 01:21:31;;;;;;;6.18;5.68;;;20.60;99.90;;;;;;612839;234;26853;-68
2022/08/19 01:23:59;;;;;;;6.03;5.43;;;20.60;99.90;;;;;;612758;234;26653;-68
2022/08/19 01:26:26;;;;;;;6.35;5.85;;;20.70;99.90;;;;;;612850;235;27251;-68
2022/08/19 01:28:53;;;;;;;6.55;5.95;;;20.70;99.90;;;;;;612881;234;26602;-68
2022/08/19 01:31:21;;;;;;;6.62;6.03;;;20.70;99.90;;;;;;612837;234;26811;-68
2022/08/19 01:33:47;;;;;;;5.97;5.57;;;20.60;99.90;;;;;;612765;234;26620;-68
2022/08/19 01:36:15;;;;;;;6.22;5.70;;;20.70;99.90;;;;;;612857;235;26880;-68
2022/08/19 01:38:42;;;;;;;6.53;6.05;;;20.70;99.90;;;;;;612393;234;26630;-68
2022/08/19 01:41:10;;;;;;;6.45;5.78;;;20.70;99.90;;;;;;612725;234;26849;-68
2022/08/19 01:43:37;;;;;;;6.05;5.53;;;20.80;99.90;;;;;;612704;234;26843;-68
2022/08/19 01:46:04;;;;;;;7.85;5.62;;;20.80;99.90;;;;;;612894;234;26602;-68
2022/08/19 01:48:33;;;;;;;6.85;6.25;;;20.80;99.90;;;;;;612869;235;26891;-68
2022/08/19 01:51:01;;;;;;;6.10;5.50;;;20.70;99.90;;;;;;612531;233;26606;-68
2022/08/19 01:53:29;;;;;;;6.53;5.93;;;20.70;99.90;;;;;;614192;232;26644;-67
2022/08/19 01:55:57;;;;;;;6.50;5.60;;;20.70;99.90;;;;;;614205;234;26812;-68
2022/08/19 01:58:24;;;;;;;6.78;6.18;;;20.70;99.90;;;;;;613856;234;26619;-67
2022/08/19 02:00:51;;;;;;;6.03;5.53;;;20.60;99.90;;;;;;613592;234;26853;-68
2022/08/19 02:03:19;;;;;;;6.40;5.80;;;20.60;99.90;;;;;;613428;233;26582;-67
2022/08/19 02:05:47;;;;;;;5.95;5.45;;;20.50;99.90;;;;;;613488;234;26797;-70
2022/08/19 02:08:14;;;;;;;6.10;5.60;;;20.20;99.90;;;;;;613460;234;26809;-69
2022/08/19 02:10:42;;;;;;;6.55;5.95;;;20.10;99.90;;;;;;613302;233;26554;-68
2022/08/19 02:13:09;;;;;;;6.37;5.78;;;19.90;99.90;;;;;;613018;234;26637;-68
2022/08/19 02:15:37;;;;;;;7.60;6.20;;;19.90;99.90;;;;;;613241;234;26845;-68
2022/08/19 02:18:03;;;;;;;6.25;5.65;;;20.00;99.90;;;;;;613193;234;26602;-68
2022/08/19 02:20:31;;;;;;;8.65;5.90;;;19.90;99.90;;;;;;613182;233;26600;-68
2022/08/19 02:22:58;;;;;;;6.03;5.53;;;19.80;99.90;;;;;;613119;234;26835;-68
2022/08/19 02:25:25;;;;;;;9.52;6.65;;;19.80;99.90;;;;;;613198;234;26647;-68
2022/08/19 02:27:53;;;;;;;7.07;6.25;;;19.70;99.90;;;;;;613137;234;26954;-68
2022/08/19 02:30:19;;;;;;;6.53;5.93;;;19.70;99.90;;;;;;612789;234;26621;-68
2022/08/19 02:32:47;;;;;;;7.37;6.53;;;19.60;99.90;;;;;;612810;235;26836;-68
2022/08/19 02:35:14;;;;;;;6.40;5.80;;;19.60;99.90;;;;;;612848;235;26658;-68
2022/08/19 02:40:14;;;;;;;6.20;5.60;;;19.50;99.90;;;;;;612898;234;27437;-69
2022/08/19 02:42:42;;;;;;;10.57;5.80;;;19.60;99.90;;;;;;612807;228;26572;-68
2022/08/19 02:45:10;;;;;;;6.45;5.85;;;19.60;99.90;;;;;;612869;235;26630;-68
2022/08/19 02:47:37;;;;;;;8.38;6.55;;;19.50;99.90;;;;;;612851;233;26610;-68
2022/08/19 02:50:05;;;;;;;7.45;6.68;;;19.50;99.90;;;;;;612861;235;26629;-68
2022/08/19 02:52:33;;;;;;;6.97;6.28;;;19.50;99.90;;;;;;612870;234;26632;-68
2022/08/19 02:55:01;;;;;;;8.35;5.80;;;19.60;99.90;;;;;;612903;235;26664;-68
2022/08/19 02:57:31;;;;;;;7.00;5.93;;;19.60;99.90;;;;;;612873;234;26952;-68
2022/08/19 02:59:56;;;;;;;6.20;5.45;;;19.60;99.90;;;;;;612816;234;26807;-68
2022/08/19 03:02:24;;;;;;;6.93;6.32;;;19.60;99.90;;;;;;612854;233;26629;-68
2022/08/19 03:04:51;;;;;;;8.57;6.32;;;19.60;99.90;;;;;;613993;232;26966;-68
2022/08/19 03:07:18;;;;;;;6.43;5.82;;;19.50;99.90;;;;;;614145;234;26562;-68
2022/08/19 03:09:45;;;;;;;6.25;5.68;;;19.60;99.90;;;;;;613797;234;26829;-68
2022/08/19 03:12:12;;;;;;;6.75;6.05;;;19.50;99.90;;;;;;613686;234;26543;-68
2022/08/19 03:14:40;;;;;;;6.60;6.00;;;19.50;99.90;;;;;;613430;234;26832;-68
2022/08/19 03:17:07;;;;;;;6.55;5.95;;;19.50;99.90;;;;;;613491;234;26547;-68
2022/08/19 03:19:35;;;;;;;6.53;6.00;;;19.40;99.90;;;;;;613474;234;26797;-68
2022/08/19 03:22:04;;;;;;;7.80;6.03;;;19.40;99.90;;;;;;613265;234;26570;-68
2022/08/19 03:24:30;;;;;;;6.43;5.78;;;19.40;99.90;;;;;;613056;234;26896;-68
2022/08/19 03:26:58;;;;;;;6.45;5.95;;;19.40;99.90;;;;;;613187;234;26644;-68
2022/08/19 03:29:26;;;;;;;6.18;5.68;;;19.40;99.90;;;;;;613112;234;26564;-68
2022/08/19 03:31:54;;;;;;;6.30;5.80;;;19.30;99.90;;;;;;613088;234;27268;-68
2022/08/19 03:34:22;;;;;;;6.87;6.00;;;19.30;99.90;;;;;;613175;234;26865;-68
2022/08/19 03:36:50;;;;;;;6.03;5.53;;;19.30;99.90;;;;;;613101;234;26636;-68
2022/08/19 03:39:17;;;;;;;6.25;5.75;;;19.30;99.90;;;;;;613127;234;26617;-68
2022/08/19 03:41:45;;;;;;;6.00;5.50;;;19.30;99.90;;;;;;612837;234;26629;-68
2022/08/19 03:44:13;;;;;;;5.70;5.20;;;19.30;99.90;;;;;;612798;234;26856;-68
2022/08/19 03:46:40;;;;;;;6.40;5.72;;;19.40;99.90;;;;;;612861;235;26628;-68
2022/08/19 03:49:08;;;;;;;6.43;5.93;;;19.40;99.90;;;;;;612828;235;26595;-68
2022/08/19 03:51:34;;;;;;;5.80;5.30;;;19.30;99.90;;;;;;612784;233;26587;-68
2022/08/19 03:54:02;;;;;;;6.72;5.97;;;19.40;99.90;;;;;;612820;234;26900;-67
2022/08/19 03:56:29;;;;;;;5.80;5.40;;;19.50;99.90;;;;;;612771;233;26626;-68
2022/08/19 03:58:56;;;;;;;5.97;5.47;;;19.40;99.90;;;;;;612640;228;26845;-68
2022/08/19 04:01:24;;;;;;;5.87;5.47;;;19.40;99.90;;;;;;612757;234;26603;-68
2022/08/19 04:03:51;;;;;;;6.50;5.90;;;19.50;99.90;;;;;;612727;234;26891;-68
2022/08/19 04:06:20;;;;;;;6.15;5.65;;;19.50;99.90;;;;;;612862;235;26604;-68
2022/08/19 04:08:46;;;;;;;5.90;5.37;;;19.50;99.90;;;;;;612847;228;26606;-68
2022/08/19 04:11:14;;;;;;;6.28;5.70;;;19.50;99.90;;;;;;612859;234;26623;-68
2022/08/19 04:13:44;;;;;;;6.30;5.75;;;19.50;99.90;;;;;;612730;234;26631;-68
2022/08/19 04:16:10;;;;;;;6.40;5.80;;;19.50;99.90;;;;;;613802;232;26850;-69
2022/08/19 04:18:37;;;;;;;5.45;5.00;;;19.50;99.90;;;;;;614045;234;26547;-69
2022/08/19 04:21:04;;;;;;;5.60;5.18;;;19.60;99.90;;;;;;613770;233;26811;-69
2022/08/19 04:23:31;;;;;;;4.68;4.30;;;19.60;99.90;;;;;;613788;234;26630;-69
2022/08/19 04:25:59;;;;;;;5.90;5.40;;;19.70;99.90;;;;;;613478;234;27275;-71
2022/08/19 04:28:26;;;;;;;4.60;4.30;;;19.70;99.90;;;;;;613493;234;26821;-70
2022/08/19 04:30:53;;;;;;;5.57;5.10;;;19.80;99.90;;;;;;613406;234;26611;-71
2022/08/19 04:33:20;;;;;;;5.25;4.75;;;19.80;99.90;;;;;;613519;234;26924;-71
2022/08/19 04:35:48;;;;;;;5.85;5.45;;;19.80;99.90;;;;;;613246;234;26828;-71
2022/08/19 04:38:15;;;;;;;6.15;5.65;;;19.90;99.90;;;;;;613144;234;26831;-71
2022/08/19 04:43:15;;;;;;;6.35;5.85;;;20.00;99.90;;;;;;613221;234;27274;-71
2022/08/19 04:45:43;;;;;;;5.32;4.85;;;20.00;99.90;;;;;;613130;234;26604;-71
2022/08/19 04:48:10;;;;;;;6.80;6.30;;;20.10;99.90;;;;;;613185;234;26927;-71
2022/08/19 04:50:37;;;;;;;6.40;5.90;;;20.10;99.90;;;;;;613053;234;26567;-71
2022/08/19 04:53:04;;;;;;;5.75;5.35;;;20.20;99.90;;;;;;612646;234;26847;-71
2022/08/19 04:55:31;;;;;;;5.68;5.25;;;20.20;99.90;;;;;;612780;234;26635;-71
2022/08/19 04:57:59;;;;;;;6.20;5.68;;;20.20;99.90;;;;;;612877;233;26825;-71
2022/08/19 05:00:27;;;;;;;6.12;5.68;;;20.20;99.90;;;;;;613137;234;26591;-71
2022/08/19 05:02:55;;;;;;;5.90;5.40;;;20.30;99.90;;;;;;612979;233;26618;-70
2022/08/19 05:05:23;;;;;;;6.37;5.78;;;20.30;99.90;;;;;;612876;235;26631;-70
2022/08/19 05:07:51;;;;;;;6.03;5.53;;;20.40;99.90;;;;;;612860;233;26625;-70
2022/08/19 05:10:18;;;;;;;6.57;6.03;;;20.40;99.90;;;;;;612868;235;26627;-70
2022/08/19 05:12:45;;;;;;;6.75;5.72;;;20.40;99.90;;;;;;612783;233;27249;-70
2022/08/19 05:15:12;;;;;;;6.00;5.57;;;20.50;99.90;;;;;;612835;235;26642;-70
2022/08/19 05:22:31;;;;;;;6.25;5.65;;;20.50;99.90;;;;;;612918;235;26584;-70
2022/08/19 05:22:41;;;;;;;5.90;5.37;;;20.70;99.90;;;;;;612830;235;26619;-70
2022/08/19 05:25:08;;;;;;;6.05;5.55;;;20.80;99.90;;;;;;612886;234;26865;-70
2022/08/19 05:27:38;;;;;;;6.43;5.82;;;20.90;99.90;;;;;;614114;232;26634;-70
2022/08/19 05:30:06;;;;;;;6.37;5.82;;;21.00;99.90;;;;;;614566;234;27034;-70
2022/08/19 05:32:33;;;;;;;6.05;5.55;;;21.00;99.90;;;;;;614175;234;26579;-70
2022/08/19 05:35:00;;;;;;;6.37;5.87;;;21.00;99.90;;;;;;614120;233;26602;-70
2022/08/19 05:37:28;;;;;;;7.25;6.07;;;21.20;99.90;;;;;;613609;232;26562;-71
2022/08/19 05:39:56;;;;;;;5.90;5.50;;;21.30;99.90;;;;;;613411;234;26558;-70
2022/08/19 05:42:25;;;;;;;6.20;5.70;;;21.40;99.90;;;;;;613409;232;26554;-70
2022/08/19 05:44:52;;;;;;;7.97;5.97;;;21.50;99.90;;;;;;613380;233;26580;-70
2022/08/19 05:47:19;;;;;;;5.95;5.53;;;21.40;99.90;;;;;;613106;234;26623;-70
2022/08/19 05:49:46;;;;;;;5.85;5.30;;;21.40;99.90;;;;;;613194;234;26624;-70
2022/08/19 05:52:15;;;;;;;6.95;6.25;;;21.50;99.90;;;;;;613099;234;26830;-70
2022/08/19 05:54:42;;;;;;;5.90;5.50;;;21.60;99.90;;;;;;613105;234;26626;-69
2022/08/19 05:57:08;;;;;;;6.70;6.10;;;21.70;99.90;;;;;;613123;231;26853;-71
2022/08/19 05:59:35;;;;;;;8.23;5.97;;;21.90;99.90;;;;;;613163;234;26608;-71
2022/08/19 06:02:02;;;;;;;7.22;6.18;;;22.00;99.90;;;;;;613105;234;26838;-71
2022/08/19 06:04:30;;;;;;;6.00;5.50;;;22.10;99.90;;;;;;613192;234;26599;-72
2022/08/19 06:06:59;;;;;;;7.15;6.03;;;22.20;99.90;;;;;;612803;235;26620;-71
2022/08/19 06:09:26;;;;;;;7.12;6.43;;;22.20;99.90;;;;;;612817;234;26583;-71
2022/08/19 06:11:54;;;;;;;6.80;6.30;;;22.40;99.90;;;;;;612844;235;26608;-71
2022/08/19 06:14:22;;;;;;;6.68;6.18;;;22.40;99.90;;;;;;612710;234;26662;-71
2022/08/19 06:16:50;;;;;;;7.82;7.07;;;22.40;99.90;;;;;;612808;234;26640;-71
2022/08/19 06:19:16;;;;;;;7.28;6.47;;;22.50;99.90;;;;;;612889;231;26810;-71
2022/08/19 06:21:43;;;;;;;8.00;7.07;;;22.50;99.90;;;;;;612630;233;26591;-70
2022/08/19 06:24:11;;;;;;;7.43;6.78;;;22.70;99.90;;;;;;625311;229;26644;-70
2022/08/19 06:26:38;;;;;;;7.75;7.00;;;22.70;99.90;;;;;;628532;225;26826;-70
2022/08/19 06:29:06;;;;;;;7.20;6.57;;;22.70;99.90;;;;;;629577;225;26839;-70
2022/08/19 06:31:33;;;;;;;7.12;6.53;;;22.80;99.90;;;;;;628838;225;26594;-67
2022/08/19 06:34:02;;;;;;;6.28;5.78;;;23.00;99.90;;;;;;612273;234;27352;-67
2022/08/19 06:36:31;;;;;;;6.82;6.18;;;23.00;99.90;;;;;;628204;226;26582;-67
2022/08/19 06:38:58;;;;;;;5.75;5.25;;;23.00;99.90;;;;;;629057;225;26566;-67
2022/08/19 06:41:25;;;;;;;7.75;7.05;;;23.10;99.90;;;;;;630627;225;26813;-68
2022/08/19 06:43:52;;;;;;;7.18;6.57;;;23.30;99.90;;;;;;629390;222;26596;-69
2022/08/19 06:46:19;;;;;;;7.47;6.75;;;23.40;99.90;;;;;;630428;225;26796;-70
2022/08/19 06:48:47;;;;;;;7.20;6.60;;;23.40;99.90;;;;;;629781;226;26598;-69
2022/08/19 06:51:15;;;;;;;8.30;7.43;;;23.40;99.90;;;;;;627877;227;26826;-69
2022/08/19 06:53:45;;;;;;;8.15;7.18;;;23.30;99.90;;;;;;629530;226;26621;-69
2022/08/19 06:56:08;;;;;;;7.80;7.10;;;23.30;99.90;;;;;;631899;225;26957;-69
2022/08/19 06:58:36;;;;;;;7.97;7.18;;;23.40;99.90;;;;;;628135;225;26603;-69
2022/08/19 07:01:03;;;;;;;7.82;7.12;;;23.60;99.90;;;;;;628283;226;26581;-69
2022/08/19 07:03:30;;;;;;;8.95;8.05;;;23.50;99.90;;;;;;631489;225;26888;-69
2022/08/19 07:05:58;;;;;;;9.23;8.27;;;23.50;99.90;;;;;;626832;227;26548;-69
2022/08/19 07:08:26;;;;;;;8.35;7.65;;;23.60;99.90;;;;;;627596;226;27267;-69
2022/08/19 07:10:53;;;;;;;8.70;7.70;;;23.50;99.90;;;;;;629993;225;26840;-69
2022/08/19 07:13:21;;;;;;;8.57;7.62;;;23.50;99.90;;;;;;629464;226;26586;-70
2022/08/19 07:15:47;;;;;;;7.53;7.03;;;23.30;99.90;;;;;;625917;227;26839;-70
2022/08/19 07:18:15;;;;;;;8.80;7.85;;;23.40;99.90;;;;;;624822;230;26501;-70
2022/08/19 07:20:43;;;;;;;8.90;7.80;;;23.40;99.90;;;;;;624801;230;26540;-70
2022/08/19 07:23:11;;;;;;;7.72;7.03;;;23.50;99.90;;;;;;624774;229;26528;-70
2022/08/19 07:25:39;;;;;;;7.87;7.18;;;23.50;99.90;;;;;;624789;230;26530;-70
2022/08/19 07:28:08;;;;;;;7.93;7.22;;;23.70;99.90;;;;;;624701;227;26540;-69
2022/08/19 07:30:34;;;;;;;6.45;5.95;;;23.70;99.90;;;;;;624374;230;26705;-69
2022/08/19 07:33:01;;;;;;;7.75;6.50;;;23.90;99.90;;;;;;604665;236;26606;-69
2022/08/19 07:35:31;;;;;;;6.22;5.82;;;24.00;99.90;;;;;;634348;227;26585;-69
2022/08/19 07:37:56;;;;;;;6.90;6.40;;;24.00;99.90;;;;;;634221;227;26796;-69
2022/08/19 07:40:24;;;;;;;8.07;7.35;;;24.00;99.90;;;;;;634415;226;26543;-69
2022/08/19 07:42:51;;;;;;;9.02;7.95;;;23.90;99.90;;;;;;634189;227;26579;-69
2022/08/19 07:45:20;;;;;;;9.20;8.40;;;23.90;99.90;;;;;;634009;226;26781;-69
2022/08/19 07:47:47;;;;;;;8.65;7.75;;;23.60;99.90;;;;;;630104;226;26583;-67
2022/08/19 07:50:15;;;;;;;9.30;8.50;;;23.90;99.90;;;;;;625603;225;26635;-70
2022/08/19 07:52:44;;;;;;;8.52;7.93;;;23.90;99.90;;;;;;625956;230;26601;-70
2022/08/19 07:55:11;;;;;;;9.55;8.63;;;23.90;99.90;;;;;;602152;239;26696;-70
2022/08/19 07:57:39;;;;;;;9.65;8.80;;;23.90;99.90;;;;;;628825;229;26607;-69
2022/08/19 08:00:07;;;;;;;12.37;9.48;;;23.90;99.90;;;;;;632119;226;26853;-69
2022/08/19 08:02:34;;;;;;;10.68;9.57;;;24.00;99.90;;;;;;634567;226;26614;-70
2022/08/19 08:10:08;;;;;;;125.00;39.65;;;23.80;99.90;;;;;;624873;230;26540;-67
2022/08/19 08:12:35;;;;;;;102.57;35.40;;;23.80;99.90;;;;;;613851;234;26611;-69
2022/08/19 08:15:02;;;;;;;86.45;29.27;;;23.60;99.90;;;;;;625703;225;26828;-68
2022/08/19 08:17:29;;;;;;;27.75;12.93;;;23.70;99.90;;;;;;625385;230;26514;-68
2022/08/19 08:19:57;;;;;;;21.77;10.45;;;23.80;99.90;;;;;;625693;230;26530;-69
2022/08/19 08:25:09;;;;;;;57.72;23.12;;;24.20;99.90;;;;;;626986;227;26653;-69
2022/08/19 08:27:39;;;;;;;44.63;20.67;;;24.20;99.90;;;;;;632123;227;26532;-69
2022/08/19 08:30:08;;;;;;;46.35;21.98;;;24.20;99.90;;;;;;631834;227;26570;-70
2022/08/19 08:32:33;;;;;;;35.58;17.40;;;23.90;99.90;;;;;;631778;227;26534;-69
2022/08/19 08:35:00;;;;;;;21.55;12.13;;;23.90;99.90;;;;;;601212;239;26847;-70
2022/08/19 08:37:27;;;;;;;42.00;17.70;;;24.20;99.90;;;;;;601831;239;26566;-69
2022/08/19 08:42:39;;;;;;;38.47;20.02;;;24.50;99.90;;;;;;604803;234;26572;-69
2022/08/19 08:45:10;;;;;;;37.15;17.50;;;24.40;99.90;;;;;;606169;237;26865;-68
2022/08/19 08:47:35;;;;;;;40.28;18.67;;;24.40;99.90;;;;;;630088;226;26581;-69
2022/08/19 08:50:05;;;;;;;31.27;17.73;;;24.20;99.90;;;;;;626316;225;26587;-69
2022/08/19 08:52:35;;;;;;;26.80;16.48;;;24.10;99.90;;;;;;625195;230;26597;-69
2022/08/19 08:55:05;;;;;;;27.42;14.85;;;24.30;99.90;;;;;;625259;230;26615;-69
2022/08/19 08:57:33;;;;;;;27.27;15.57;;;24.30;99.90;;;;;;624728;226;26642;-69
2022/08/19 09:00:00;;;;;;;15.77;12.55;;;24.50;99.90;;;;;;603020;234;26805;-70
2022/08/19 09:02:28;;;;;;;19.35;14.40;;;24.40;99.90;;;;;;632650;225;26535;-69
2022/08/19 09:04:56;;;;;;;19.37;13.88;;;24.30;99.90;;;;;;632972;226;26551;-70
2022/08/19 09:07:30;;;;;;;18.70;13.77;;;24.20;99.90;;;;;;633033;225;26624;-70
2022/08/19 09:10:12;;;;;;;16.25;12.13;;;24.20;99.90;;;;;;635229;226;26828;-70
2022/08/19 09:12:43;;;;;;;14.07;12.10;;;24.00;99.90;;;;;;633720;226;26800;-70
2022/08/19 09:15:10;;;;;;;13.15;11.85;;;23.80;99.90;;;;;;634153;227;27133;-71
2022/08/19 09:17:38;;;;;;;12.63;11.38;;;23.70;99.90;;;;;;634668;227;26570;-71
2022/08/19 09:20:19;;;;;;;13.32;10.57;;;23.90;99.90;;;;;;634568;227;26798;-70
2022/08/19 09:22:48;;;;;;;11.75;10.65;;;24.30;99.90;;;;;;635132;226;26537;-70
2022/08/19 09:25:14;;;;;;;11.63;10.63;;;24.80;99.90;;;;;;637059;226;26856;-71
2022/08/19 09:27:41;;;;;;;12.70;11.48;;;25.20;99.90;;;;;;637086;226;26543;-70
2022/08/19 09:30:10;;;;;;;11.02;10.02;;;25.60;99.90;;;;;;632572;226;27244;-70
2022/08/19 09:32:38;;;;;;;11.90;10.90;;;25.60;99.90;;;;;;624717;230;26643;-70
2022/08/19 09:35:06;;;;;;;11.38;10.23;;;25.60;99.90;;;;;;601820;239;26627;-70
2022/08/19 09:37:33;;;;;;;11.27;10.27;;;25.30;99.90;;;;;;602216;239;26561;-71
2022/08/19 09:40:01;;;;;;;11.12;10.13;;;25.30;99.90;;;;;;616889;231;26531;-71
2022/08/19 09:42:29;;;;;;;11.12;10.18;;;25.50;99.90;;;;;;633981;227;26574;-71
2022/08/19 09:44:56;;;;;;;10.25;9.38;;;25.60;99.90;;;;;;624795;226;26621;-71
2022/08/19 09:47:24;;;;;;;11.40;10.23;;;25.60;99.90;;;;;;624596;230;26602;-71
2022/08/19 09:49:52;;;;;;;10.55;9.75;;;25.80;99.90;;;;;;601271;239;26628;-71
2022/08/19 09:52:20;;;;;;;11.23;10.20;;;25.90;99.90;;;;;;635690;225;26635;-71
2022/08/19 09:54:48;;;;;;;10.93;9.90;;;26.10;99.90;;;;;;626485;230;26579;-71
2022/08/19 09:57:16;;;;;;;10.57;9.68;;;26.10;99.90;;;;;;626587;230;26537;-70
2022/08/19 09:59:44;;;;;;;10.30;9.40;;;26.10;99.90;;;;;;626354;230;26537;-71
2022/08/19 10:02:11;;;;;;;8.73;8.10;;;25.90;99.90;;;;;;622447;230;26560;-70
2022/08/19 10:07:12;;;;;;;10.63;9.73;;;26.20;99.90;;;;;;620904;230;26571;-68
2022/08/19 10:09:40;;;;;;;10.88;10.00;;;25.90;99.90;;;;;;614447;233;26692;-70
2022/08/19 10:12:08;;;;;;;10.57;9.68;;;25.90;99.90;;;;;;608568;234;26541;-71
2022/08/19 10:14:36;;;;;;;12.93;10.30;;;25.90;99.90;;;;;;636328;224;26623;-70
2022/08/19 10:17:04;;;;;;;10.75;9.75;;;25.50;99.90;;;;;;636453;226;26580;-69
2022/08/19 10:19:35;;;;;;;10.05;9.20;;;25.30;99.90;;;;;;637992;225;26639;-69
2022/08/19 10:22:00;;;;;;;10.20;9.20;;;25.40;99.90;;;;;;629541;225;26645;-69
2022/08/19 10:24:28;;;;;;;9.63;8.82;;;25.30;99.90;;;;;;632208;226;26620;-69
2022/08/19 10:26:56;;;;;;;10.32;9.43;;;25.20;99.90;;;;;;625878;225;26545;-69
2022/08/19 10:29:24;;;;;;;9.48;8.57;;;25.10;99.90;;;;;;625880;224;26640;-69
2022/08/19 10:31:53;;;;;;;10.38;9.38;;;24.80;99.90;;;;;;632985;225;26590;-69
2022/08/19 10:34:20;;;;;;;10.52;9.63;;;24.60;99.90;;;;;;633102;227;26558;-70
2022/08/19 10:36:48;;;;;;;10.48;9.55;;;24.50;99.90;;;;;;625919;226;26619;-71
2022/08/19 10:39:15;;;;;;;10.80;9.85;;;24.50;99.90;;;;;;613818;234;26582;-70
2022/08/19 10:41:43;;;;;;;10.23;9.32;;;24.50;99.90;;;;;;613009;233;26563;-70
2022/08/19 10:44:10;;;;;;;10.00;9.00;;;24.80;99.90;;;;;;612843;234;26582;-70
2022/08/19 10:46:37;;;;;;;10.35;9.40;;;24.70;99.90;;;;;;602176;235;26665;-70
2022/08/19 10:49:04;;;;;;;9.52;8.75;;;24.70;99.90;;;;;;625580;229;26552;-70
2022/08/19 10:54:05;;;;;;;9.98;9.05;;;24.80;99.90;;;;;;625526;230;27259;-70
2022/08/19 10:59:06;;;;;;;8.68;7.95;;;25.30;99.90;;;;;;625483;230;26627;-70
2022/08/19 11:01:34;;;;;;;9.90;9.00;;;25.10;99.90;;;;;;625345;230;26593;-70
2022/08/19 11:04:02;;;;;;;9.48;8.75;;;25.10;99.90;;;;;;625447;230;26612;-70
2022/08/19 11:06:30;;;;;;;10.52;8.60;;;24.70;99.90;;;;;;625400;230;26557;-70
2022/08/19 11:08:59;;;;;;;9.30;8.60;;;24.60;99.90;;;;;;625407;230;26546;-70
2022/08/19 11:11:26;;;;;;;9.50;8.70;;;24.30;99.90;;;;;;625389;228;26598;-70
2022/08/19 11:13:53;;;;;;;9.00;8.30;;;24.20;99.90;;;;;;625480;230;26632;-70
2022/08/19 11:16:21;;;;;;;9.30;8.38;;;24.10;99.90;;;;;;625563;224;26611;-69
2022/08/19 11:18:48;;;;;;;9.75;8.85;;;24.20;99.90;;;;;;625440;230;26863;-66
2022/08/19 11:21:18;;;;;;;8.68;7.87;;;24.40;99.90;;;;;;625339;230;26594;-66
2022/08/19 11:23:45;;;;;;;9.95;8.95;;;24.60;99.90;;;;;;625391;230;27245;-67
2022/08/19 11:26:12;;;;;;;9.48;8.65;;;24.60;99.90;;;;;;635677;224;26809;-66
2022/08/19 11:28:40;;;;;;;9.45;8.55;;;24.40;99.90;;;;;;602426;233;26643;-67
2022/08/19 11:31:10;;;;;;;9.70;8.80;;;24.30;99.90;;;;;;628850;229;26899;-67
2022/08/19 11:33:37;;;;;;;8.45;7.75;;;24.60;99.90;;;;;;602580;237;26622;-67
2022/08/19 11:36:04;;;;;;;8.82;8.02;;;24.70;99.90;;;;;;602538;239;26553;-67
2022/08/19 11:38:31;;;;;;;9.13;8.32;;;24.50;99.90;;;;;;626315;230;26783;-66
2022/08/19 11:40:59;;;;;;;9.32;8.50;;;24.60;99.90;;;;;;626349;229;26583;-66
2022/08/19 11:43:26;;;;;;;9.27;8.38;;;24.50;99.90;;;;;;626208;229;26749;-65
2022/08/19 11:45:54;;;;;;;9.63;8.45;;;24.00;99.90;;;;;;632285;227;26584;-66
2022/08/19 11:48:22;;;;;;;10.27;8.32;;;24.00;99.90;;;;;;632589;226;26581;-68
2022/08/19 11:50:50;;;;;;;9.70;7.85;;;24.00;99.90;;;;;;632494;226;26664;-68
2022/08/19 11:53:18;;;;;;;9.80;8.13;;;24.00;99.90;;;;;;632606;226;26581;-68
2022/08/19 11:55:46;;;;;;;13.73;7.68;;;23.90;99.90;;;;;;632483;227;26593;-68
2022/08/19 11:58:14;;;;;;;8.00;7.30;;;24.10;99.90;;;;;;632531;227;26544;-68
2022/08/19 12:00:42;;;;;;;8.60;7.75;;;24.20;99.90;;;;;;632464;226;26606;-68
2022/08/19 12:03:09;;;;;;;8.65;7.22;;;24.20;99.90;;;;;;632230;226;26527;-68
2022/08/19 12:05:36;;;;;;;8.48;7.57;;;24.40;99.90;;;;;;632254;226;26556;-68
2022/08/19 12:08:03;;;;;;;8.38;7.57;;;24.70;99.90;;;;;;632256;226;26770;-68
2022/08/19 12:10:30;;;;;;;9.82;6.95;;;24.90;99.90;;;;;;632239;226;26535;-69
2022/08/19 12:12:58;;;;;;;8.27;7.45;;;25.00;99.90;;;;;;632292;227;26776;-68
2022/08/19 12:15:27;;;;;;;7.87;7.12;;;24.90;99.90;;;;;;632271;226;26566;-68
2022/08/19 12:17:56;;;;;;;7.35;6.72;;;24.80;99.90;;;;;;632041;227;26873;-68
2022/08/19 12:20:19;;;;;;;7.40;6.80;;;24.70;99.90;;;;;;631836;227;26508;-72
2022/08/19 12:22:48;;;;;;;7.80;7.10;;;25.00;99.90;;;;;;629170;225;26904;-69
2022/08/19 12:25:14;;;;;;;7.70;7.10;;;25.50;99.90;;;;;;625644;227;26635;-68
2022/08/19 12:27:41;;;;;;;8.25;6.37;;;25.50;99.90;;;;;;613058;234;26832;-68
2022/08/19 12:30:10;;;;;;;7.72;6.68;;;25.30;99.90;;;;;;612941;235;26603;-69
2022/08/19 12:32:37;;;;;;;7.53;6.85;;;25.30;99.90;;;;;;631758;225;26538;-68
2022/08/19 12:35:05;;;;;;;7.68;6.80;;;25.80;99.90;;;;;;627393;225;27316;-69
2022/08/19 12:37:32;;;;;;;7.65;6.82;;;26.30;99.90;;;;;;626710;226;26602;-69
2022/08/19 12:39:59;;;;;;;6.87;6.28;;;26.50;99.90;;;;;;626679;229;26810;-69
2022/08/19 12:42:29;;;;;;;6.97;6.22;;;26.10;99.90;;;;;;626367;229;26557;-69
2022/08/19 12:44:56;;;;;;;6.95;6.35;;;25.80;99.90;;;;;;626282;230;26567;-69
2022/08/19 12:47:26;;;;;;;7.12;6.53;;;25.60;99.90;;;;;;626084;230;26577;-68
2022/08/19 12:49:52;;;;;;;6.97;6.35;;;25.60;99.90;;;;;;625914;230;26593;-68
2022/08/19 12:52:20;;;;;;;7.37;6.40;;;25.60;99.90;;;;;;626028;230;26619;-68
2022/08/19 12:54:46;;;;;;;6.32;5.82;;;25.80;99.90;;;;;;625893;230;26609;-68
2022/08/19 12:57:15;;;;;;;6.85;6.10;;;26.20;99.90;;;;;;631432;227;26827;-68
2022/08/19 12:59:41;;;;;;;6.60;5.90;;;26.40;99.90;;;;;;632440;227;26574;-68
2022/08/19 13:02:08;;;;;;;6.47;5.97;;;26.70;99.90;;;;;;632547;227;26812;-68
2022/08/19 13:04:37;;;;;;;6.80;6.18;;;26.90;98.80;;;;;;632414;227;26591;-68
2022/08/19 13:07:02;;;;;;;6.78;6.18;;;27.10;98.90;;;;;;629715;227;27255;-68
2022/08/19 13:09:30;;;;;;;7.07;6.47;;;26.90;98.10;;;;;;601078;237;26619;-68